Time;durP1;ratioP1;P1;durP2;ratioP2;P2;SDS_P1;SDS_P2;PMS_P1;PMS_P2;Temp;Humidity;BMP_temperature;BMP_pressure;BME280_temperature;BME280_humidity;BME280_pressure;Samples;Min_cycle;Max_cycle;Signal;HPM_P1;HPM_P2
2022/03/09 00:01:37;;;;;;;11.57;3.57;;;-3.70;96.30;;;;;;4942427;29;20310;-79
2022/03/09 00:04:04;;;;;;;6.07;3.70;;;-3.70;96.30;;;;;;4924438;29;20239;-78
2022/03/09 00:06:30;;;;;;;4.63;3.07;;;-3.80;96.30;;;;;;4922903;29;20231;-78
2022/03/09 00:08:56;;;;;;;6.97;3.50;;;-3.90;96.30;;;;;;4941375;29;20426;-78
2022/03/09 00:11:21;;;;;;;4.63;2.93;;;-4.00;96.30;;;;;;4924087;29;20459;-78
2022/03/09 00:13:47;;;;;;;5.33;2.60;;;-3.90;96.30;;;;;;4924010;29;20180;-78
2022/03/09 00:16:13;;;;;;;7.60;2.60;;;-3.90;96.30;;;;;;4924438;29;20215;-78
2022/03/09 00:18:39;;;;;;;6.33;3.20;;;-3.70;96.30;;;;;;4940645;29;20176;-79
2022/03/09 00:21:04;;;;;;;3.30;2.43;;;-3.50;96.30;;;;;;4924696;29;20443;-78
2022/03/09 00:23:31;;;;;;;7.60;3.33;;;-3.40;96.30;;;;;;4942004;29;20187;-78
2022/03/09 00:25:56;;;;;;;7.83;3.00;;;-3.40;96.30;;;;;;4924768;29;20282;-78
2022/03/09 00:28:22;;;;;;;6.00;3.27;;;-3.50;96.30;;;;;;4941707;29;20465;-78
2022/03/09 00:30:48;;;;;;;6.17;3.13;;;-3.50;96.30;;;;;;4940554;29;20203;-78
2022/03/09 00:33:13;;;;;;;6.20;2.63;;;-3.50;96.30;;;;;;4940478;29;20254;-79
2022/03/09 00:35:39;;;;;;;4.97;2.80;;;-3.50;96.30;;;;;;4923461;29;20188;-78
2022/03/09 00:38:06;;;;;;;6.50;3.50;;;-3.60;96.30;;;;;;4924328;29;20183;-78
2022/03/09 00:40:31;;;;;;;5.73;2.90;;;-3.70;96.30;;;;;;4924654;29;20422;-78
2022/03/09 00:42:57;;;;;;;5.43;2.93;;;-3.90;96.30;;;;;;4941640;29;20415;-78
2022/03/09 00:45:23;;;;;;;4.80;2.70;;;-4.00;96.30;;;;;;4923949;29;20190;-79
2022/03/09 00:47:49;;;;;;;5.73;2.90;;;-4.10;96.30;;;;;;4941442;29;20206;-79
2022/03/09 00:50:15;;;;;;;3.10;2.30;;;-4.10;96.30;;;;;;4925122;29;20969;-79
2022/03/09 00:52:41;;;;;;;4.53;2.77;;;-4.10;96.30;;;;;;4924052;29;20466;-78
2022/03/09 00:55:07;;;;;;;6.10;3.10;;;-3.90;96.30;;;;;;4924025;29;20658;-78
2022/03/09 00:57:33;;;;;;;6.37;2.83;;;-3.90;96.30;;;;;;4924124;29;20215;-79
2022/03/09 00:59:58;;;;;;;5.10;2.90;;;-3.90;96.30;;;;;;4940957;29;20419;-78
2022/03/09 05:00:37;;;;;;;4.13;2.87;;;-4.80;96.30;;;;;;5821131;23;20914;-79
2022/03/09 05:03:02;;;;;;;4.57;2.70;;;-4.60;96.30;;;;;;4922324;29;20435;-79
2022/03/09 05:05:29;;;;;;;7.03;3.10;;;-4.50;96.30;;;;;;4922641;29;20271;-78
2022/03/09 05:07:54;;;;;;;4.13;2.53;;;-4.50;96.30;;;;;;4920784;29;20227;-77
2022/03/09 05:10:20;;;;;;;4.30;2.73;;;-4.60;96.30;;;;;;4938688;29;20408;-79
2022/03/09 05:12:45;;;;;;;8.60;2.70;;;-4.60;96.30;;;;;;4921282;29;20220;-79
2022/03/09 05:15:11;;;;;;;4.80;3.03;;;-4.60;96.30;;;;;;4942931;29;20267;-80
2022/03/09 05:17:41;;;;;;;15.17;2.80;;;-4.60;96.30;;;;;;4944761;29;20180;-80
2022/03/09 05:20:07;;;;;;;7.03;3.13;;;-4.50;96.30;;;;;;4944330;29;20167;-79
2022/03/09 05:22:33;;;;;;;4.80;2.77;;;-4.50;96.30;;;;;;4943774;29;20499;-80
2022/03/09 05:24:58;;;;;;;5.07;2.97;;;-4.60;96.30;;;;;;4928949;29;20491;-80
2022/03/09 05:27:27;;;;;;;7.40;3.17;;;-4.70;96.30;;;;;;4925291;29;20194;-81
2022/03/09 05:29:53;;;;;;;4.40;2.50;;;-4.80;96.30;;;;;;4930460;29;20187;-81
2022/03/09 06:29:31;;;;;;;12.40;5.83;;;8.30;83.10;;;;;;4878418;29;20516;-81
2022/03/09 07:51:50;;;;;;;4.43;3.77;;;9.30;77.00;;;;;;5870544;23;20495;-77
2022/03/09 07:54:16;;;;;;;5.53;4.40;;;8.20;78.80;;;;;;4931275;29;20913;-76
2022/03/09 07:56:43;;;;;;;6.00;4.30;;;6.60;84.00;;;;;;4917520;29;20633;-76
2022/03/09 07:59:10;;;;;;;6.73;4.63;;;5.70;88.20;;;;;;4933778;29;20172;-77
2022/03/09 08:01:42;;;;;;;6.10;4.37;;;5.40;88.60;;;;;;4917531;29;20583;-76
2022/03/09 08:04:08;;;;;;;10.07;4.30;;;4.90;91.50;;;;;;4936163;29;20392;-76
2022/03/09 08:06:34;;;;;;;6.83;4.00;;;4.50;94.70;;;;;;4921454;29;20471;-76
2022/03/09 08:08:59;;;;;;;7.20;3.50;;;4.20;95.80;;;;;;4919451;29;20423;-76
2022/03/09 08:11:26;;;;;;;8.50;5.37;;;4.00;95.70;;;;;;4902669;29;20456;-77
2022/03/09 08:13:52;;;;;;;8.73;5.43;;;3.70;96.30;;;;;;4919594;29;20201;-76
2022/03/09 08:16:17;;;;;;;7.87;4.43;;;3.50;96.30;;;;;;4919485;29;20413;-76
2022/03/09 08:18:43;;;;;;;7.13;4.10;;;3.30;96.30;;;;;;4919243;29;20183;-75
2022/03/09 08:21:08;;;;;;;7.00;4.53;;;3.20;96.30;;;;;;4919268;29;20724;-75
2022/03/09 08:23:34;;;;;;;6.90;3.80;;;3.20;96.30;;;;;;4919001;29;20275;-76
2022/03/09 08:25:59;;;;;;;7.97;4.57;;;3.30;96.30;;;;;;4919001;29;20265;-78
2022/03/09 08:28:25;;;;;;;16.37;8.70;;;3.30;96.30;;;;;;4918332;29;20267;-75
2022/03/09 08:30:52;;;;;;;11.10;6.00;;;3.20;96.30;;;;;;4918890;29;20614;-75
2022/03/09 08:33:17;;;;;;;11.53;7.47;;;3.30;96.30;;;;;;4918926;29;20220;-75
2022/03/09 08:35:43;;;;;;;7.00;5.00;;;3.40;96.30;;;;;;4918886;29;20417;-76
2022/03/09 08:38:08;;;;;;;8.33;4.77;;;3.40;96.30;;;;;;4918744;29;20263;-77
2022/03/09 08:40:34;;;;;;;8.40;4.80;;;3.30;96.30;;;;;;4919051;29;20184;-77
2022/03/09 08:42:59;;;;;;;5.90;4.57;;;3.40;96.30;;;;;;4918703;29;20189;-76
2022/03/09 08:45:25;;;;;;;9.40;4.50;;;3.50;96.30;;;;;;4918966;29;20181;-77
2022/03/09 08:47:50;;;;;;;6.57;4.27;;;3.70;96.30;;;;;;4918472;29;20187;-77
2022/03/09 08:50:16;;;;;;;5.90;3.40;;;3.70;96.30;;;;;;4918623;29;20669;-76
2022/03/09 08:52:41;;;;;;;5.80;4.30;;;3.80;96.30;;;;;;4918499;29;20224;-76
2022/03/09 08:55:07;;;;;;;5.57;3.90;;;3.80;96.30;;;;;;4901569;29;20309;-76
2022/03/09 08:57:33;;;;;;;6.87;3.87;;;3.80;94.30;;;;;;4918585;29;20176;-76
2022/03/09 09:00:03;;;;;;;6.80;4.27;;;3.90;92.70;;;;;;4918928;29;20412;-77
2022/03/09 09:02:29;;;;;;;5.63;3.63;;;4.10;93.20;;;;;;4901773;29;20234;-77
2022/03/09 09:04:55;;;;;;;7.33;3.50;;;5.00;90.40;;;;;;4901484;29;20902;-77
2022/03/09 09:07:20;;;;;;;9.40;4.37;;;5.90;86.50;;;;;;4918788;29;20436;-77
2022/03/09 09:09:46;;;;;;;6.27;3.70;;;7.00;83.00;;;;;;4918295;29;20176;-77
2022/03/09 09:12:11;;;;;;;4.27;3.20;;;8.50;81.00;;;;;;4901169;29;20208;-77
2022/03/09 09:14:37;;;;;;;5.17;3.43;;;8.20;78.00;;;;;;4918241;29;20176;-77
2022/03/09 09:17:03;;;;;;;5.77;4.10;;;9.60;75.30;;;;;;4918027;29;20260;-77
2022/03/09 09:19:29;;;;;;;8.00;3.70;;;10.00;75.30;;;;;;4917994;29;20545;-77
2022/03/09 09:21:54;;;;;;;4.50;3.93;;;10.80;72.40;;;;;;4917971;29;20515;-78
2022/03/09 09:24:20;;;;;;;5.47;4.20;;;11.10;71.70;;;;;;4916166;29;20485;-78
2022/03/09 09:26:46;;;;;;;5.77;3.77;;;11.10;71.00;;;;;;4899789;29;20201;-77
2022/03/09 09:29:12;;;;;;;7.53;4.10;;;11.30;69.80;;;;;;4901300;29;20805;-77
2022/03/09 09:31:38;;;;;;;9.30;3.63;;;11.30;70.70;;;;;;4898942;29;20213;-78
2022/03/09 09:34:03;;;;;;;7.47;4.10;;;11.80;69.80;;;;;;4898887;29;20546;-77
2022/03/09 09:36:29;;;;;;;6.47;4.37;;;11.70;68.50;;;;;;4898891;29;20180;-77
2022/03/09 09:38:56;;;;;;;6.10;3.67;;;11.20;69.30;;;;;;4901204;29;20550;-78
2022/03/09 09:41:24;;;;;;;5.30;3.70;;;10.90;68.00;;;;;;4899022;29;20201;-77
2022/03/09 09:43:50;;;;;;;6.13;3.37;;;10.90;70.10;;;;;;4912695;29;20970;-79
2022/03/09 09:46:16;;;;;;;5.20;3.17;;;11.60;67.10;;;;;;4901405;29;20441;-79
2022/03/09 09:48:43;;;;;;;9.73;3.83;;;10.30;67.60;;;;;;4916363;29;20607;-77
2022/03/09 09:51:10;;;;;;;4.90;3.53;;;10.40;67.60;;;;;;4917464;29;20212;-77
2022/03/09 09:53:36;;;;;;;5.10;3.33;;;10.60;67.10;;;;;;4917428;29;20436;-77
2022/03/09 09:56:03;;;;;;;4.70;3.27;;;11.00;66.90;;;;;;4917554;29;20423;-77
2022/03/09 09:58:30;;;;;;;5.20;4.07;;;11.60;69.50;;;;;;4917222;29;20232;-76
2022/03/09 10:00:56;;;;;;;7.00;4.20;;;12.30;66.80;;;;;;4917296;29;20519;-77
2022/03/09 10:03:21;;;;;;;5.10;3.60;;;12.20;66.10;;;;;;4917437;29;20504;-77
2022/03/09 10:05:47;;;;;;;5.13;3.37;;;12.30;67.00;;;;;;4901504;29;20577;-77
2022/03/09 10:08:16;;;;;;;5.17;2.90;;;12.00;66.20;;;;;;4917479;29;20238;-80
2022/03/09 10:10:55;;;;;;;4.70;3.30;;;11.80;63.70;;;;;;4900492;29;20197;-77
2022/03/09 10:13:35;;;;;;;3.87;3.40;;;11.60;63.90;;;;;;4917178;29;20405;-77
2022/03/09 10:16:20;;;;;;;3.23;2.60;;;11.90;63.60;;;;;;4911296;29;20473;-77
2022/03/09 10:18:56;;;;;;;3.60;2.63;;;11.70;63.70;;;;;;4897930;29;20413;-79
2022/03/09 10:21:28;;;;;;;4.67;2.70;;;11.60;63.70;;;;;;4898063;29;20528;-78
2022/03/09 10:23:58;;;;;;;5.43;3.07;;;11.10;63.80;;;;;;4898008;29;20405;-78
2022/03/09 10:26:25;;;;;;;4.10;2.70;;;10.80;63.00;;;;;;4897641;29;20406;-79
2022/03/09 10:28:56;;;;;;;4.00;3.23;;;10.00;63.50;;;;;;4881073;29;20428;-77
2022/03/09 10:31:37;;;;;;;5.73;2.83;;;10.80;67.10;;;;;;4898442;29;20457;-77
2022/03/09 10:34:07;;;;;;;3.50;2.60;;;10.40;64.80;;;;;;4916032;29;20405;-78
2022/03/09 10:36:33;;;;;;;4.20;2.87;;;10.30;64.90;;;;;;4916696;29;20443;-77
2022/03/09 10:39:16;;;;;;;3.87;3.00;;;10.60;65.90;;;;;;4916513;29;20409;-77
2022/03/09 10:41:43;;;;;;;5.80;2.90;;;10.60;63.10;;;;;;4916629;29;20203;-77
2022/03/09 10:44:09;;;;;;;5.90;3.03;;;10.80;64.80;;;;;;4899624;29;20462;-77
2022/03/09 10:46:46;;;;;;;3.73;2.80;;;11.00;63.90;;;;;;4916526;29;20421;-77
2022/03/09 10:49:13;;;;;;;17.63;3.07;;;10.90;63.00;;;;;;4899350;29;20480;-77
2022/03/09 10:51:46;;;;;;;4.53;3.00;;;11.00;63.30;;;;;;4916175;29;20488;-77
2022/03/09 10:54:20;;;;;;;2.93;2.20;;;11.30;63.30;;;;;;4916353;29;20421;-77
2022/03/09 10:56:46;;;;;;;3.83;2.20;;;11.40;62.90;;;;;;4916388;29;20400;-77
2022/03/09 10:59:15;;;;;;;6.33;2.60;;;11.40;64.50;;;;;;4916164;29;20444;-77
2022/03/09 11:02:01;;;;;;;4.27;2.83;;;11.40;63.70;;;;;;4916170;29;20461;-77
2022/03/09 11:04:27;;;;;;;3.63;2.23;;;10.90;61.00;;;;;;4913869;29;20455;-79
2022/03/09 11:06:54;;;;;;;3.03;2.10;;;11.40;62.10;;;;;;4897439;29;20511;-77
2022/03/09 11:09:20;;;;;;;2.73;2.07;;;11.30;63.30;;;;;;4897143;29;20543;-77
2022/03/09 11:11:48;;;;;;;3.10;1.87;;;10.80;61.70;;;;;;4897014;29;20472;-78
2022/03/09 11:14:14;;;;;;;2.53;1.90;;;10.40;61.30;;;;;;4897889;29;20321;-78
2022/03/09 11:16:42;;;;;;;2.50;1.57;;;10.20;61.00;;;;;;4897656;29;20410;-78
2022/03/09 11:19:09;;;;;;;4.80;2.20;;;10.80;66.20;;;;;;4880821;29;20421;-77
2022/03/09 11:26:50;;;;;;;2.80;1.97;;;12.50;61.40;;;;;;5095550;23;20483;-79
2022/03/09 11:29:36;;;;;;;3.70;2.07;;;12.10;62.90;;;;;;4925326;29;20466;-78
2022/03/09 11:32:04;;;;;;;3.73;2.50;;;12.10;62.20;;;;;;4942571;29;20561;-80
2022/03/09 11:34:31;;;;;;;3.23;2.33;;;10.90;62.90;;;;;;4940895;29;20471;-80
2022/03/09 11:36:59;;;;;;;4.50;2.57;;;10.90;64.30;;;;;;4940010;29;20448;-80
2022/03/09 11:39:25;;;;;;;2.17;1.90;;;10.60;62.30;;;;;;4936537;29;20411;-79
2022/03/09 11:42:22;;;;;;;4.50;2.53;;;11.50;63.70;;;;;;4938056;29;20442;-80
2022/03/09 11:45:14;;;;;;;5.43;2.50;;;11.70;61.90;;;;;;4938598;29;20407;-80
2022/03/09 11:48:00;;;;;;;3.93;2.20;;;11.70;61.60;;;;;;4937661;29;20797;-80
2022/03/09 11:50:29;;;;;;;2.60;2.00;;;12.00;66.40;;;;;;4920890;29;20482;-80
2022/03/09 11:53:02;;;;;;;2.90;2.00;;;12.50;64.60;;;;;;4920688;29;21081;-78
2022/03/09 11:55:28;;;;;;;3.47;2.30;;;12.70;65.60;;;;;;4935407;29;20416;-80
2022/03/09 11:58:05;;;;;;;4.73;2.20;;;12.70;65.60;;;;;;4937587;29;20434;-80
2022/03/09 12:00:30;;;;;;;4.80;2.27;;;12.60;63.90;;;;;;4936724;29;20474;-80
2022/03/09 12:02:56;;;;;;;3.33;2.13;;;12.40;65.80;;;;;;4900633;29;20791;-77
2022/03/09 12:05:25;;;;;;;3.50;2.30;;;11.90;62.00;;;;;;4918688;29;20180;-80
2022/03/09 12:07:54;;;;;;;5.13;2.73;;;11.80;64.50;;;;;;4902351;29;20428;-79
2022/03/09 12:10:22;;;;;;;4.00;2.60;;;11.80;65.10;;;;;;4919046;29;20424;-79
2022/03/09 12:13:18;;;;;;;3.63;2.70;;;11.40;64.30;;;;;;4900327;29;20467;-78
2022/03/09 12:16:02;;;;;;;3.40;2.73;;;11.50;66.10;;;;;;4900163;29;20986;-79
2022/03/09 12:18:42;;;;;;;5.40;2.80;;;11.30;64.70;;;;;;4919564;29;20404;-78
2022/03/09 12:21:10;;;;;;;2.20;2.00;;;11.40;65.60;;;;;;4919821;29;20443;-78
2022/03/09 12:24:04;;;;;;;2.80;2.50;;;11.70;63.70;;;;;;4920538;29;20416;-78
2022/03/09 12:26:44;;;;;;;4.33;2.53;;;11.90;64.30;;;;;;4902813;29;20431;-78
2022/03/09 12:29:21;;;;;;;7.60;2.90;;;12.40;67.30;;;;;;4919951;29;20420;-79
2022/03/09 12:32:02;;;;;;;3.47;2.43;;;12.70;64.70;;;;;;4918951;29;20468;-79
2022/03/09 12:34:31;;;;;;;2.70;2.40;;;11.70;63.10;;;;;;4919373;29;20504;-78
2022/03/09 12:36:57;;;;;;;3.10;2.40;;;11.70;65.70;;;;;;4900208;29;20412;-79
2022/03/09 12:39:23;;;;;;;3.20;2.43;;;11.90;65.00;;;;;;4916762;29;20416;-80
2022/03/09 12:41:56;;;;;;;3.50;2.53;;;11.90;64.10;;;;;;4899268;29;20447;-79
2022/03/09 12:44:23;;;;;;;3.43;2.33;;;12.40;64.60;;;;;;4917062;29;20187;-79
2022/03/09 12:46:52;;;;;;;2.63;2.20;;;12.30;63.90;;;;;;4916726;29;20420;-79
2022/03/09 12:49:21;;;;;;;4.27;2.13;;;11.30;63.30;;;;;;4916427;29;20918;-79
2022/03/09 12:51:53;;;;;;;5.03;2.40;;;11.70;61.90;;;;;;4902747;29;20503;-77
2022/03/09 12:54:33;;;;;;;2.47;2.20;;;11.40;62.20;;;;;;4902827;29;20427;-78
2022/03/09 12:57:10;;;;;;;3.60;2.13;;;11.60;70.00;;;;;;4919871;29;20942;-79
2022/03/09 12:59:36;;;;;;;3.43;2.23;;;12.30;70.20;;;;;;4902857;29;20985;-79
2022/03/09 13:02:02;;;;;;;2.77;2.00;;;12.60;65.40;;;;;;4919246;29;20527;-79
2022/03/09 13:04:28;;;;;;;2.33;1.87;;;12.70;62.50;;;;;;4919422;29;20512;-79
2022/03/09 13:06:55;;;;;;;3.10;2.13;;;12.10;63.70;;;;;;4902523;29;20960;-79
2022/03/09 13:09:22;;;;;;;4.30;2.33;;;12.20;64.30;;;;;;4902335;29;20192;-79
2022/03/09 13:11:48;;;;;;;2.57;2.10;;;12.40;63.50;;;;;;4919436;29;20464;-78
2022/03/09 13:14:16;;;;;;;5.33;2.70;;;12.10;65.00;;;;;;4921507;29;20839;-79
2022/03/09 13:16:42;;;;;;;2.70;2.13;;;12.00;61.60;;;;;;4920196;29;20169;-79
2022/03/09 13:19:08;;;;;;;4.23;3.10;;;12.20;62.10;;;;;;4918880;29;20991;-78
2022/03/09 13:21:34;;;;;;;3.60;2.20;;;12.20;64.10;;;;;;4918849;29;20200;-78
2022/03/09 13:24:07;;;;;;;3.23;2.37;;;12.60;62.80;;;;;;4919078;29;20291;-77
2022/03/09 13:26:41;;;;;;;6.70;2.33;;;12.60;63.20;;;;;;4919008;29;20479;-79
2022/03/09 13:29:16;;;;;;;7.77;2.37;;;12.10;61.90;;;;;;4918901;29;20512;-79
2022/03/09 13:31:57;;;;;;;4.53;2.50;;;11.80;62.50;;;;;;4919243;29;20907;-78
2022/03/09 13:34:34;;;;;;;6.73;2.87;;;11.10;63.60;;;;;;4919225;29;20767;-78
2022/03/09 13:37:18;;;;;;;4.23;3.03;;;11.40;66.60;;;;;;4918963;29;20420;-79
2022/03/09 13:39:49;;;;;;;3.23;2.70;;;12.00;68.40;;;;;;4918911;29;20417;-79
2022/03/09 13:42:21;;;;;;;6.37;2.77;;;12.30;65.50;;;;;;4918757;29;20456;-79
2022/03/09 13:45:01;;;;;;;3.27;2.50;;;12.30;65.70;;;;;;4919216;29;20417;-79
2022/03/09 13:47:26;;;;;;;5.63;3.23;;;11.70;65.20;;;;;;4919262;29;20759;-82
2022/03/09 13:49:52;;;;;;;5.23;2.70;;;11.40;64.60;;;;;;4902929;29;20435;-79
2022/03/09 13:52:22;;;;;;;4.40;3.20;;;11.30;64.30;;;;;;4918727;29;20547;-79
2022/03/09 13:54:49;;;;;;;2.90;2.23;;;11.60;63.30;;;;;;4902363;29;20187;-79
2022/03/09 13:57:26;;;;;;;4.97;2.57;;;11.90;64.10;;;;;;4919477;29;20511;-78
2022/03/09 13:59:52;;;;;;;5.03;2.50;;;12.30;63.60;;;;;;4918986;29;20420;-79
2022/03/09 14:02:19;;;;;;;3.33;3.00;;;12.30;62.50;;;;;;4901874;29;20965;-78
2022/03/09 14:04:46;;;;;;;4.97;2.53;;;11.90;64.90;;;;;;4919084;29;20241;-77
2022/03/09 14:07:11;;;;;;;3.17;2.50;;;11.70;65.60;;;;;;4919423;29;20463;-79
2022/03/09 14:09:37;;;;;;;2.90;2.20;;;11.50;67.10;;;;;;4928433;29;20830;-77
2022/03/09 14:12:16;;;;;;;4.30;2.80;;;11.80;66.80;;;;;;4934666;29;20218;-77
2022/03/09 14:14:41;;;;;;;3.07;2.17;;;11.20;64.60;;;;;;4922917;29;20180;-77
2022/03/09 14:17:07;;;;;;;3.93;2.60;;;11.70;64.50;;;;;;4919627;29;20440;-77
2022/03/09 14:19:32;;;;;;;3.07;2.10;;;11.30;63.30;;;;;;4918644;29;20179;-78
2022/03/09 14:21:58;;;;;;;2.77;2.57;;;11.00;65.10;;;;;;4917086;29;20204;-78
2022/03/09 14:24:23;;;;;;;3.57;2.60;;;11.40;66.20;;;;;;4917145;29;20183;-77
2022/03/09 14:26:51;;;;;;;3.07;2.40;;;11.60;67.50;;;;;;4917229;29;20207;-77
2022/03/09 14:29:17;;;;;;;4.00;2.57;;;11.80;64.60;;;;;;4916626;29;20180;-78
2022/03/09 14:31:45;;;;;;;3.13;2.47;;;12.20;66.10;;;;;;4915530;29;20459;-78
2022/03/09 14:34:11;;;;;;;5.43;2.43;;;11.60;64.20;;;;;;4917137;29;20495;-77
2022/03/09 14:36:36;;;;;;;4.00;2.27;;;11.10;64.90;;;;;;4899683;29;20503;-77
2022/03/09 14:39:04;;;;;;;3.83;2.20;;;11.10;67.30;;;;;;4916502;29;20180;-77
2022/03/09 14:41:29;;;;;;;3.50;2.13;;;11.50;66.90;;;;;;4919518;29;20449;-76
2022/03/09 14:43:55;;;;;;;2.57;2.00;;;11.50;68.00;;;;;;4934390;29;20778;-78
2022/03/09 14:46:21;;;;;;;3.70;2.30;;;11.20;66.60;;;;;;4935575;29;20615;-78
2022/03/09 14:48:47;;;;;;;3.20;2.40;;;11.40;66.10;;;;;;4935142;29;20175;-78
2022/03/09 14:51:13;;;;;;;4.80;2.10;;;11.40;65.80;;;;;;4935091;29;20570;-78
2022/03/09 14:53:39;;;;;;;3.20;2.90;;;11.40;68.60;;;;;;4935594;29;20182;-77
2022/03/09 14:56:09;;;;;;;2.80;2.60;;;11.40;67.70;;;;;;4918349;29;20197;-78
2022/03/09 14:58:40;;;;;;;3.27;2.50;;;11.20;68.40;;;;;;4918254;29;20171;-78
2022/03/09 15:01:06;;;;;;;4.37;2.60;;;11.10;68.40;;;;;;4920752;29;20490;-78
2022/03/09 15:03:32;;;;;;;8.30;2.60;;;11.10;68.70;;;;;;4899316;29;20425;-78
2022/03/09 15:05:57;;;;;;;2.87;2.17;;;10.90;68.60;;;;;;4916166;29;21001;-77
2022/03/09 15:08:23;;;;;;;3.27;2.43;;;10.80;70.50;;;;;;4918412;29;20239;-76
2022/03/09 15:10:49;;;;;;;2.70;2.30;;;10.60;71.50;;;;;;4917939;29;20677;-76
2022/03/09 15:13:15;;;;;;;3.40;2.33;;;10.80;68.70;;;;;;4917319;29;20486;-76
2022/03/09 15:15:41;;;;;;;3.10;2.27;;;11.10;70.10;;;;;;4934921;29;20510;-78
2022/03/09 15:18:06;;;;;;;4.63;2.80;;;11.40;66.90;;;;;;4925605;29;20188;-78
2022/03/09 15:20:32;;;;;;;7.83;2.47;;;11.40;66.40;;;;;;4919458;29;20214;-78
2022/03/09 15:22:58;;;;;;;4.63;2.50;;;11.30;68.40;;;;;;4915064;29;20283;-77
2022/03/09 15:25:23;;;;;;;3.70;2.27;;;11.00;69.10;;;;;;4899849;29;20579;-76
2022/03/09 15:27:49;;;;;;;5.60;2.93;;;10.90;70.60;;;;;;4933747;29;20216;-76
2022/03/09 15:30:14;;;;;;;4.13;2.63;;;10.70;68.90;;;;;;4934592;29;20199;-76
2022/03/09 15:32:40;;;;;;;3.00;2.07;;;10.40;70.10;;;;;;4934672;29;20675;-76
2022/03/09 15:35:06;;;;;;;3.30;2.83;;;10.40;70.90;;;;;;4935469;29;20172;-79
2022/03/09 15:37:31;;;;;;;4.53;2.53;;;10.20;71.00;;;;;;4919191;29;20596;-76
2022/03/09 15:39:58;;;;;;;4.80;2.27;;;10.00;72.20;;;;;;4918198;29;20172;-79
2022/03/09 15:42:24;;;;;;;2.70;2.20;;;9.90;70.50;;;;;;4900209;29;20291;-75
2022/03/09 15:44:49;;;;;;;4.03;1.87;;;9.80;70.60;;;;;;4900260;29;20424;-77
2022/03/09 15:47:15;;;;;;;4.37;2.80;;;9.70;72.30;;;;;;4917624;29;20507;-77
2022/03/09 15:49:41;;;;;;;3.47;2.60;;;9.60;74.70;;;;;;4917374;29;20176;-77
2022/03/09 15:52:09;;;;;;;4.57;2.20;;;9.40;71.50;;;;;;4929578;29;20634;-78
2022/03/09 15:54:35;;;;;;;5.30;2.20;;;9.30;72.50;;;;;;4900355;29;20176;-77
2022/03/09 15:57:00;;;;;;;4.90;2.77;;;9.10;73.10;;;;;;4900585;29;20424;-77
2022/03/09 15:59:26;;;;;;;5.03;2.90;;;9.00;72.80;;;;;;4917186;29;20176;-79
2022/03/09 16:01:51;;;;;;;3.90;2.80;;;9.00;72.00;;;;;;4917154;29;20196;-78
2022/03/09 16:04:17;;;;;;;3.70;2.67;;;8.80;72.90;;;;;;4917672;29;20180;-78
2022/03/09 16:06:42;;;;;;;5.33;2.33;;;8.60;73.50;;;;;;4917773;29;20180;-77
2022/03/09 16:09:08;;;;;;;3.10;1.83;;;8.40;75.80;;;;;;4900422;29;20190;-77
2022/03/09 16:11:33;;;;;;;4.93;2.47;;;8.30;76.40;;;;;;4900089;29;20268;-78
2022/03/09 16:14:00;;;;;;;4.90;2.83;;;8.10;76.50;;;;;;4917477;29;20710;-77
2022/03/09 16:16:26;;;;;;;6.30;2.83;;;8.00;75.60;;;;;;4917653;29;20176;-79
2022/03/09 16:18:52;;;;;;;4.57;3.33;;;7.90;75.60;;;;;;4900510;29;20420;-80
2022/03/09 16:21:19;;;;;;;5.03;3.17;;;7.80;76.10;;;;;;4916905;29;20878;-79
2022/03/09 16:23:45;;;;;;;5.10;2.57;;;7.60;77.20;;;;;;4898749;29;20228;-77
2022/03/09 16:26:11;;;;;;;9.97;3.70;;;7.30;79.20;;;;;;4901504;29;20452;-77
2022/03/09 16:28:37;;;;;;;4.83;3.10;;;6.90;80.50;;;;;;4902025;29;20191;-77
2022/03/09 16:31:04;;;;;;;10.47;3.03;;;6.60;82.00;;;;;;4919267;29;20495;-77
2022/03/09 16:33:30;;;;;;;11.63;2.83;;;6.40;82.60;;;;;;4902231;29;20533;-77
2022/03/09 16:35:55;;;;;;;7.20;3.40;;;6.20;84.20;;;;;;4918825;29;20503;-77
2022/03/09 16:38:21;;;;;;;6.10;3.33;;;5.90;87.10;;;;;;4918704;29;20172;-76
2022/03/09 16:40:47;;;;;;;4.47;3.30;;;5.70;87.20;;;;;;4901925;29;20200;-79
2022/03/09 16:43:13;;;;;;;4.77;3.20;;;5.50;87.80;;;;;;4919001;29;20179;-78
2022/03/09 16:45:38;;;;;;;9.13;2.97;;;5.40;89.10;;;;;;4918714;29;20180;-79
2022/03/09 16:48:04;;;;;;;4.87;3.47;;;5.10;92.40;;;;;;4918583;29;20184;-76
2022/03/09 16:50:30;;;;;;;5.67;3.20;;;4.90;91.80;;;;;;4918559;29;20184;-78
2022/03/09 16:52:56;;;;;;;16.10;4.20;;;4.80;92.30;;;;;;4901557;29;20215;-77
2022/03/09 16:55:21;;;;;;;5.00;3.17;;;4.60;95.30;;;;;;4918597;29;20421;-77
2022/03/09 16:57:47;;;;;;;4.60;3.00;;;4.30;96.30;;;;;;4918325;29;20176;-78
2022/03/09 17:00:20;;;;;;;7.60;3.50;;;4.20;96.30;;;;;;4901599;29;20176;-77
2022/03/09 17:02:46;;;;;;;4.37;2.87;;;4.00;96.30;;;;;;4901774;29;20208;-77
2022/03/09 17:05:12;;;;;;;7.90;3.37;;;3.80;96.30;;;;;;4918524;29;20850;-77
2022/03/09 17:07:38;;;;;;;37.03;3.70;;;3.60;96.30;;;;;;4901297;29;20451;-77
2022/03/09 17:10:05;;;;;;;4.03;3.23;;;3.30;96.30;;;;;;4922433;29;20172;-77
2022/03/09 17:12:32;;;;;;;7.73;2.93;;;3.10;96.30;;;;;;4920172;29;20365;-75
2022/03/09 17:14:57;;;;;;;4.13;3.20;;;2.90;96.30;;;;;;4938080;29;20914;-77
2022/03/09 17:17:24;;;;;;;6.43;3.10;;;2.80;96.30;;;;;;4907181;29;20421;-76
2022/03/09 17:19:50;;;;;;;5.73;3.73;;;2.70;96.30;;;;;;4910269;29;20658;-76
2022/03/09 17:22:16;;;;;;;3.83;3.30;;;2.60;96.30;;;;;;4932894;29;20444;-76
2022/03/09 17:24:42;;;;;;;3.33;2.50;;;2.40;96.30;;;;;;4919886;29;20219;-77
2022/03/09 17:27:11;;;;;;;6.77;3.63;;;2.30;96.30;;;;;;4920742;29;20243;-77
2022/03/09 17:29:38;;;;;;;4.37;3.37;;;2.10;96.30;;;;;;4920562;29;20180;-75
2022/03/09 17:32:06;;;;;;;4.37;3.27;;;2.00;96.30;;;;;;4920027;29;20467;-76
2022/03/09 17:34:32;;;;;;;8.43;3.40;;;2.00;96.30;;;;;;4917646;29;20460;-75
2022/03/09 17:36:57;;;;;;;11.43;3.43;;;1.90;96.30;;;;;;4901410;29;20455;-77
2022/03/09 17:39:23;;;;;;;6.30;4.07;;;1.80;96.30;;;;;;4910559;29;20667;-77
2022/03/09 17:41:48;;;;;;;8.83;4.80;;;1.70;96.30;;;;;;4917977;29;20222;-77
2022/03/09 17:44:14;;;;;;;7.50;4.23;;;1.60;96.30;;;;;;4948402;29;20203;-77
2022/03/09 17:46:39;;;;;;;8.53;4.20;;;1.50;96.30;;;;;;4928373;29;20183;-77
2022/03/09 17:49:06;;;;;;;8.57;3.40;;;1.50;96.30;;;;;;4919195;29;20223;-77
2022/03/09 17:51:31;;;;;;;8.87;5.73;;;1.40;96.30;;;;;;4927091;29;20584;-76
2022/03/09 17:53:57;;;;;;;4.13;3.27;;;1.30;96.30;;;;;;4918839;29;20417;-77
2022/03/09 17:56:23;;;;;;;11.53;5.20;;;1.30;96.30;;;;;;4936265;29;20176;-76
2022/03/09 17:58:49;;;;;;;13.20;5.90;;;1.30;96.30;;;;;;4903424;29;20236;-77
2022/03/09 18:01:15;;;;;;;13.43;7.70;;;1.30;96.30;;;;;;4899734;29;20192;-76
2022/03/09 18:03:41;;;;;;;17.43;10.00;;;1.30;96.30;;;;;;4900639;29;20535;-77
2022/03/09 18:06:07;;;;;;;28.90;15.63;;;1.20;96.30;;;;;;4900256;29;20420;-76
2022/03/09 18:08:34;;;;;;;37.20;19.90;;;1.20;96.30;;;;;;4917097;29;20440;-78
2022/03/09 18:34:17;;;;;;;12.70;7.23;;;0.90;96.30;;;;;;5121171;23;20543;-79
2022/03/09 18:36:43;;;;;;;13.60;8.93;;;1.00;96.30;;;;;;4956981;29;20762;-80
2022/03/09 18:39:10;;;;;;;11.23;8.43;;;1.10;96.30;;;;;;4955697;29;20595;-79
2022/03/09 18:41:37;;;;;;;15.93;13.10;;;1.10;96.30;;;;;;4961118;29;20175;-79
2022/03/09 18:44:03;;;;;;;15.20;8.83;;;1.20;96.30;;;;;;4959077;29;20883;-80
2022/03/09 18:46:29;;;;;;;14.13;10.73;;;1.10;96.30;;;;;;4959925;29;20434;-79
2022/03/09 18:48:55;;;;;;;19.30;14.50;;;0.90;96.30;;;;;;4959012;28;20414;-79
2022/03/09 18:51:20;;;;;;;25.70;18.30;;;0.90;96.30;;;;;;4942938;29;20202;-80
2022/03/09 18:53:46;;;;;;;27.37;17.80;;;0.90;96.30;;;;;;4943953;29;20199;-80
2022/03/09 18:56:11;;;;;;;19.90;13.83;;;0.80;96.30;;;;;;4959818;29;20171;-79
2022/03/09 18:58:37;;;;;;;11.60;7.20;;;0.80;96.30;;;;;;4939919;29;20183;-76
2022/03/09 19:01:03;;;;;;;10.20;7.03;;;0.70;96.30;;;;;;4957403;29;20566;-80
2022/03/09 19:03:28;;;;;;;10.60;6.87;;;0.70;96.30;;;;;;4956860;28;20214;-79
2022/03/09 19:05:54;;;;;;;11.80;5.93;;;0.80;96.30;;;;;;4937904;29;20211;-80
2022/03/09 19:08:19;;;;;;;10.60;6.57;;;0.60;96.30;;;;;;4919306;29;20271;-80
2022/03/09 19:10:45;;;;;;;16.20;8.07;;;0.50;96.30;;;;;;4936887;29;20578;-81
2022/03/09 19:13:11;;;;;;;12.00;7.60;;;0.40;96.30;;;;;;4919323;29;20214;-80
2022/03/09 19:15:36;;;;;;;13.37;8.60;;;0.20;96.30;;;;;;4920495;29;20180;-80
2022/03/09 19:18:03;;;;;;;14.63;9.50;;;0.10;96.30;;;;;;4919686;29;20172;-80
2022/03/09 19:20:31;;;;;;;13.33;8.30;;;0.00;96.30;;;;;;4936687;29;20172;-80
2022/03/09 19:23:00;;;;;;;16.70;10.50;;;0.00;96.30;;;;;;4939475;29;20435;-81
2022/03/09 19:25:26;;;;;;;14.80;8.23;;;-0.10;96.30;;;;;;4930750;29;20939;-81
2022/03/09 19:27:52;;;;;;;13.33;9.43;;;-0.30;96.30;;;;;;4932256;29;20498;-79
2022/03/09 19:30:18;;;;;;;22.00;11.90;;;-0.40;96.30;;;;;;4919840;29;20937;-81
2022/03/09 19:32:44;;;;;;;15.80;10.77;;;-0.40;96.30;;;;;;4922040;29;20717;-80
2022/03/09 19:35:11;;;;;;;20.50;12.73;;;-0.50;96.30;;;;;;4920431;29;20471;-78